createdAt,value
2019-03-29T00:00:32.286Z,47.78
2019-03-29T00:01:15.443Z,49.20
2019-03-29T00:01:49.229Z,50.20
2019-03-29T00:02:23.233Z,48.83
2019-03-29T00:02:57.179Z,53.83
2019-03-29T00:03:30.993Z,49.20
2019-03-29T00:04:05.203Z,52.83
2019-03-29T00:04:38.964Z,45.23
2019-03-29T00:05:12.946Z,48.80
2019-03-29T00:05:46.749Z,50.75
2019-03-29T00:06:20.731Z,55.92
2019-03-29T00:06:54.517Z,46.20
2019-03-29T00:07:39.450Z,50.28
2019-03-29T00:08:04.629Z,47.20
2019-03-29T00:08:38.477Z,47.50
2019-03-29T00:09:13.503Z,50.15
2019-03-29T00:09:47.428Z,50.92
2019-03-29T00:10:22.236Z,49.08
2019-03-29T00:10:56.101Z,47.00
2019-03-29T00:11:30.010Z,50.65
2019-03-29T00:12:04.836Z,45.70
2019-03-29T00:12:39.025Z,50.60
2019-03-29T00:13:14.645Z,48.17
2019-03-29T00:13:49.909Z,44.95
2019-03-29T00:14:23.818Z,51.02
2019-03-29T00:14:57.591Z,47.78
2019-03-29T00:15:31.332Z,45.52
2019-03-29T00:16:11.235Z,45.85
2019-03-29T00:16:45.167Z,47.10
2019-03-29T00:17:18.989Z,45.88
2019-03-29T00:17:52.922Z,48.52
2019-03-29T00:18:26.767Z,47.05
2019-03-29T00:19:01.320Z,46.05
2019-03-29T00:19:35.743Z,44.67
2019-03-29T00:20:09.863Z,44.70
2019-03-29T00:20:43.586Z,44.10
2019-03-29T00:21:17.341Z,49.53
2019-03-29T00:21:52.045Z,44.03
2019-03-29T00:22:25.822Z,45.00
2019-03-29T00:22:59.521Z,44.58
2019-03-29T00:23:33.385Z,43.63
2019-03-29T00:24:07.445Z,44.60
2019-03-29T00:24:41.370Z,44.48
2019-03-29T00:25:15.102Z,45.67
2019-03-29T00:25:48.861Z,44.18
2019-03-29T00:26:22.561Z,45.33
2019-03-29T00:26:56.594Z,44.88
2019-03-29T00:27:30.477Z,44.03
2019-03-29T00:28:04.383Z,44.50
2019-03-29T00:28:38.127Z,44.48
2019-03-29T00:29:12.077Z,43.65
2019-03-29T00:29:45.991Z,43.15
2019-03-29T00:30:19.917Z,43.25
2019-03-29T00:31:06.002Z,42.50
2019-03-29T00:31:40.083Z,42.33
2019-03-29T00:32:13.739Z,43.58
2019-03-29T00:32:47.585Z,43.45
2019-03-29T00:33:21.255Z,42.78
2019-03-29T00:33:55.425Z,43.83
2019-03-29T00:34:29.303Z,43.28
2019-03-29T00:35:03.563Z,42.20
2019-03-29T00:35:37.545Z,42.80
2019-03-29T00:36:11.560Z,42.25
2019-03-29T00:36:45.275Z,42.58
2019-03-29T00:37:19.210Z,41.80
2019-03-29T00:37:54.949Z,42.40
2019-03-29T00:38:28.765Z,42.95
2019-03-29T00:39:03.692Z,44.05
2019-03-29T00:39:38.707Z,43.33
2019-03-29T00:40:12.625Z,43.30
2019-03-29T00:40:46.471Z,41.63
2019-03-29T00:41:20.405Z,42.10
2019-03-29T00:41:54.256Z,41.60
2019-03-29T00:42:28.164Z,41.40
2019-03-29T00:43:03.532Z,42.90
2019-03-29T00:43:37.323Z,41.77
2019-03-29T00:44:11.105Z,42.30
2019-03-29T00:44:46.115Z,42.05
2019-03-29T00:45:19.983Z,41.65
2019-03-29T00:46:00.976Z,42.00
2019-03-29T00:46:34.938Z,41.98
2019-03-29T00:47:08.750Z,40.92
2019-03-29T00:47:42.885Z,41.10
2019-03-29T00:48:16.581Z,40.30
2019-03-29T00:48:50.309Z,40.85
2019-03-29T00:49:24.138Z,40.95
2019-03-29T00:49:57.854Z,41.28
2019-03-29T00:50:32.929Z,41.18
2019-03-29T00:51:06.833Z,41.60
2019-03-29T00:51:40.678Z,41.30
2019-03-29T00:52:14.541Z,43.02
2019-03-29T00:52:48.361Z,41.70
2019-03-29T00:53:22.197Z,43.85
2019-03-29T00:53:55.899Z,42.43
2019-03-29T00:54:29.773Z,41.35
2019-03-29T00:55:03.923Z,41.77
2019-03-29T00:55:37.719Z,42.60
2019-03-29T00:56:12.988Z,40.85
2019-03-29T00:56:47.784Z,40.80
2019-03-29T00:57:21.603Z,41.02
2019-03-29T00:57:56.931Z,41.20
2019-03-29T00:58:31.149Z,41.50
2019-03-29T00:59:07.823Z,41.35
2019-03-29T00:59:41.717Z,41.55
2019-03-29T01:00:15.727Z,42.38
2019-03-29T01:00:49.554Z,41.53
2019-03-29T01:05:28.347Z,40.55
2019-03-29T01:06:02.223Z,43.05
2019-03-29T01:06:36.055Z,41.65
2019-03-29T01:07:10.810Z,41.90
2019-03-29T01:07:44.658Z,42.13
2019-03-29T01:08:18.541Z,41.33
2019-03-29T01:08:52.468Z,41.35
2019-03-29T01:09:26.156Z,42.17
2019-03-29T01:10:00.153Z,42.30
2019-03-29T01:10:34.138Z,40.48
2019-03-29T01:11:07.995Z,41.00
2019-03-29T01:11:41.809Z,40.33
2019-03-29T01:12:15.564Z,40.85
2019-03-29T01:12:50.651Z,41.20
2019-03-29T01:13:24.936Z,42.48
2019-03-29T01:13:58.846Z,41.65
2019-03-29T01:14:32.591Z,41.48
2019-03-29T01:15:08.284Z,40.88
2019-03-29T01:15:42.813Z,41.60
2019-03-29T01:20:20.106Z,41.98
2019-03-29T01:20:54.027Z,42.05
2019-03-29T01:21:27.869Z,40.70
2019-03-29T01:22:01.607Z,41.77
2019-03-29T01:22:35.537Z,41.40
2019-03-29T01:23:09.478Z,41.28
2019-03-29T01:23:43.186Z,40.92
2019-03-29T01:24:17.180Z,41.55
2019-03-29T01:24:52.042Z,42.23
2019-03-29T01:25:25.880Z,40.75
2019-03-29T01:26:00.949Z,41.80
2019-03-29T01:26:35.046Z,41.73
2019-03-29T01:27:13.022Z,40.45
2019-03-29T01:27:49.269Z,40.65
2019-03-29T01:28:23.113Z,40.50
2019-03-29T01:28:56.982Z,40.52
2019-03-29T01:29:31.097Z,39.83
2019-03-29T01:30:05.538Z,40.73
2019-03-29T01:30:39.431Z,39.90
2019-03-29T01:35:19.791Z,40.45
2019-03-29T01:35:54.713Z,39.88
2019-03-29T01:36:28.654Z,39.70
2019-03-29T01:37:02.629Z,39.45
2019-03-29T01:37:36.585Z,40.43
2019-03-29T01:38:21.247Z,38.98
2019-03-29T01:38:46.389Z,40.08
2019-03-29T01:39:20.265Z,39.92
2019-03-29T01:39:54.173Z,39.23
2019-03-29T01:40:28.181Z,39.23
2019-03-29T01:41:02.127Z,41.05
2019-03-29T01:41:36.043Z,39.20
2019-03-29T01:42:09.979Z,39.50
2019-03-29T01:42:44.932Z,39.60
2019-03-29T01:43:18.950Z,38.55
2019-03-29T01:43:52.726Z,38.63
2019-03-29T01:44:27.871Z,38.83
2019-03-29T01:45:01.858Z,38.45
2019-03-29T01:45:35.583Z,38.70
2019-03-29T01:49:39.351Z,39.42
2019-03-29T01:50:13.351Z,38.58
2019-03-29T01:50:47.239Z,38.25
2019-03-29T01:51:21.249Z,38.10
2019-03-29T01:51:55.015Z,38.00
2019-03-29T01:52:31.503Z,38.00
2019-03-29T01:53:04.555Z,38.02
2019-03-29T01:53:38.331Z,37.70
2019-03-29T01:54:14.825Z,36.95
2019-03-29T01:54:48.552Z,37.90
2019-03-29T01:55:22.392Z,37.63
2019-03-29T01:55:58.069Z,36.95
2019-03-29T01:56:31.974Z,37.25
2019-03-29T01:57:06.292Z,36.70
2019-03-29T01:57:40.948Z,36.80
2019-03-29T01:58:15.377Z,36.25
2019-03-29T01:58:50.997Z,35.70
2019-03-29T01:59:24.901Z,36.23
2019-03-29T01:59:58.799Z,35.95
2019-03-29T02:00:33.486Z,35.88
2019-03-29T02:01:07.333Z,36.20
2019-03-29T02:04:38.413Z,36.13
2019-03-29T02:05:12.311Z,37.03
2019-03-29T02:05:46.194Z,47.38
2019-03-29T02:06:20.137Z,37.00
2019-03-29T02:06:54.136Z,53.48
2019-03-29T02:07:28.008Z,37.40
2019-03-29T02:08:02.057Z,36.58
2019-03-29T02:08:37.691Z,37.45
2019-03-29T02:09:11.812Z,37.00
2019-03-29T02:09:45.551Z,36.95
2019-03-29T02:10:19.445Z,36.05
2019-03-29T02:10:53.458Z,37.33
2019-03-29T02:11:28.331Z,36.55
2019-03-29T02:12:03.379Z,35.70
2019-03-29T02:12:37.285Z,36.20
2019-03-29T02:13:12.995Z,35.83
2019-03-29T02:13:46.924Z,35.75
2019-03-29T02:14:20.825Z,35.23
2019-03-29T02:14:54.692Z,40.65
2019-03-29T02:15:28.545Z,35.90
2019-03-29T02:16:03.171Z,35.98
2019-03-29T02:19:34.182Z,34.60
2019-03-29T02:20:08.295Z,34.48
2019-03-29T02:20:42.315Z,34.25
2019-03-29T02:21:17.381Z,34.00
2019-03-29T02:21:51.327Z,34.18
2019-03-29T02:22:24.932Z,33.55
2019-03-29T02:22:58.685Z,33.25
2019-03-29T02:23:32.518Z,33.10
2019-03-29T02:24:06.358Z,33.88
2019-03-29T02:24:40.086Z,34.00
2019-03-29T02:25:13.926Z,33.48
2019-03-29T02:25:47.838Z,34.00
2019-03-29T02:26:21.710Z,33.53
2019-03-29T02:26:55.544Z,33.55
2019-03-29T02:27:29.298Z,33.95
2019-03-29T02:28:03.140Z,33.95
2019-03-29T02:28:37.007Z,34.33
2019-03-29T02:29:11.086Z,33.70
2019-03-29T02:29:45.163Z,33.58
2019-03-29T02:30:19.127Z,33.60
2019-03-29T02:30:53.003Z,33.88
2019-03-29T02:34:24.726Z,33.90
2019-03-29T02:34:58.624Z,34.23
2019-03-29T02:35:32.484Z,35.00
2019-03-29T02:36:06.749Z,34.67
2019-03-29T02:36:41.105Z,34.83
2019-03-29T02:37:14.962Z,35.63
2019-03-29T02:37:48.843Z,35.45
2019-03-29T02:38:23.514Z,35.73
2019-03-29T02:38:59.135Z,35.73
2019-03-29T02:39:33.445Z,35.73
2019-03-29T02:40:07.770Z,36.53
2019-03-29T02:40:41.537Z,36.17
2019-03-29T02:41:15.376Z,35.73
2019-03-29T02:41:49.151Z,37.80
2019-03-29T02:42:23.030Z,38.30
2019-03-29T02:42:57.077Z,37.83
2019-03-29T02:43:30.968Z,38.17
2019-03-29T02:44:04.966Z,39.30
2019-03-29T02:44:39.828Z,39.38
2019-03-29T02:45:14.025Z,39.73
2019-03-29T02:45:48.004Z,39.90
2019-03-29T02:46:21.892Z,40.43
2019-03-29T02:49:49.567Z,38.78
2019-03-29T02:50:23.553Z,39.55
2019-03-29T02:50:57.353Z,38.55
2019-03-29T02:51:32.607Z,38.65
2019-03-29T02:52:06.574Z,39.00
2019-03-29T02:52:40.554Z,38.70
2019-03-29T02:53:14.410Z,38.90
2019-03-29T02:53:48.304Z,39.90
2019-03-29T02:54:22.116Z,39.10
2019-03-29T02:54:56.073Z,39.42
2019-03-29T02:55:29.838Z,39.78
2019-03-29T02:56:03.709Z,38.88
2019-03-29T02:56:37.493Z,39.03
2019-03-29T02:57:11.401Z,39.73
2019-03-29T02:57:45.403Z,39.70
2019-03-29T02:58:19.639Z,40.28
2019-03-29T02:58:53.375Z,39.38
2019-03-29T02:59:27.224Z,39.53
2019-03-29T03:00:01.181Z,39.55
2019-03-29T03:00:35.060Z,39.98
2019-03-29T03:01:08.976Z,39.78
2019-03-29T03:04:37.381Z,45.95
2019-03-29T03:05:11.332Z,43.63
2019-03-29T03:05:45.176Z,39.92
2019-03-29T03:06:19.085Z,41.68
2019-03-29T03:06:52.860Z,40.75
2019-03-29T03:07:26.979Z,41.35
2019-03-29T03:08:00.818Z,39.80
2019-03-29T03:08:34.947Z,42.40
2019-03-29T03:09:13.924Z,41.33
2019-03-29T03:09:44.782Z,41.30
2019-03-29T03:10:18.898Z,39.48
2019-03-29T03:10:52.775Z,42.30
2019-03-29T03:11:26.613Z,42.80
2019-03-29T03:12:00.480Z,39.60
2019-03-29T03:12:34.447Z,39.60
2019-03-29T03:13:08.296Z,39.15
2019-03-29T03:13:42.184Z,40.03
2019-03-29T03:14:15.961Z,39.20
2019-03-29T03:14:49.942Z,40.00
2019-03-29T03:15:23.848Z,39.67
2019-03-29T03:15:57.704Z,39.65
2019-03-29T03:16:31.695Z,39.42
2019-03-29T03:18:54.320Z,39.35
2019-03-29T03:19:28.115Z,39.23
2019-03-29T03:20:01.930Z,39.10
2019-03-29T03:20:35.674Z,38.25
2019-03-29T03:21:09.471Z,38.25
2019-03-29T03:21:43.357Z,38.28
2019-03-29T03:22:17.315Z,38.65
2019-03-29T03:22:51.133Z,38.17
2019-03-29T03:23:25.020Z,37.60
2019-03-29T03:23:58.837Z,37.93
2019-03-29T03:24:32.721Z,37.55
2019-03-29T03:25:06.851Z,38.02
2019-03-29T03:25:40.709Z,37.48
2019-03-29T03:26:14.404Z,38.10
2019-03-29T03:26:48.218Z,37.55
2019-03-29T03:27:22.052Z,37.00
2019-03-29T03:27:55.886Z,36.68
2019-03-29T03:28:29.715Z,36.75
2019-03-29T03:29:03.564Z,36.63
2019-03-29T03:29:39.114Z,37.20
2019-03-29T03:30:13.594Z,36.53
2019-03-29T03:30:47.302Z,36.68
2019-03-29T03:31:22.164Z,36.42
2019-03-29T03:33:43.345Z,36.68
2019-03-29T03:34:17.153Z,36.13
2019-03-29T03:34:51.056Z,36.17
2019-03-29T03:35:25.120Z,36.05
2019-03-29T03:35:58.893Z,36.88
2019-03-29T03:36:34.137Z,36.85
2019-03-29T03:37:08.095Z,36.15
2019-03-29T03:37:42.049Z,35.45
2019-03-29T03:38:16.227Z,36.15
2019-03-29T03:38:50.123Z,35.70
2019-03-29T03:39:31.854Z,35.73
2019-03-29T03:39:59.584Z,36.83
2019-03-29T03:40:33.347Z,36.53
2019-03-29T03:41:07.215Z,35.58
2019-03-29T03:41:41.045Z,36.85
2019-03-29T03:42:14.927Z,35.40
2019-03-29T03:42:48.886Z,35.63
2019-03-29T03:43:22.816Z,35.05
2019-03-29T03:43:56.667Z,35.28
2019-03-29T03:44:31.012Z,35.60
2019-03-29T03:45:05.903Z,35.35
2019-03-29T03:45:39.859Z,35.03
2019-03-29T03:46:13.776Z,35.15
2019-03-29T03:46:47.607Z,34.95
2019-03-29T03:48:37.987Z,35.08
2019-03-29T03:49:11.815Z,34.30
2019-03-29T03:49:45.892Z,35.35
2019-03-29T03:50:37.392Z,34.78
2019-03-29T03:51:12.140Z,34.98
2019-03-29T03:51:46.001Z,34.70
2019-03-29T03:52:20.045Z,34.38
2019-03-29T03:52:54.024Z,34.85
2019-03-29T03:53:28.468Z,34.98
2019-03-29T03:54:02.353Z,34.27
2019-03-29T03:54:37.771Z,34.55
2019-03-29T03:55:11.586Z,34.03
2019-03-29T03:55:45.551Z,34.83
2019-03-29T03:56:19.992Z,34.80
2019-03-29T03:56:54.333Z,34.35
2019-03-29T03:57:28.288Z,34.03
2019-03-29T03:58:03.453Z,34.75
2019-03-29T03:58:39.667Z,33.73
2019-03-29T03:59:13.579Z,34.90
2019-03-29T03:59:48.887Z,34.75
2019-03-29T04:00:30.569Z,34.78
2019-03-29T04:01:04.514Z,34.80
2019-03-29T04:01:38.361Z,34.73
2019-03-29T04:03:19.813Z,34.53
2019-03-29T04:03:54.120Z,35.13
2019-03-29T04:04:27.967Z,35.00
2019-03-29T04:05:01.871Z,35.43
2019-03-29T04:05:35.787Z,35.17
2019-03-29T04:06:09.635Z,36.00
2019-03-29T04:06:43.773Z,35.25
2019-03-29T04:07:17.600Z,34.65
2019-03-29T04:07:51.457Z,35.52
2019-03-29T04:08:25.607Z,35.90
2019-03-29T04:09:01.365Z,34.88
2019-03-29T04:09:48.403Z,35.25
2019-03-29T04:10:11.235Z,34.67
2019-03-29T04:10:45.058Z,35.25
2019-03-29T04:11:19.000Z,34.75
2019-03-29T04:11:52.695Z,34.90
2019-03-29T04:12:26.470Z,37.05
2019-03-29T04:13:00.083Z,37.93
2019-03-29T04:13:34.055Z,36.98
2019-03-29T04:14:07.953Z,36.90
2019-03-29T04:14:41.773Z,38.25
2019-03-29T04:15:15.606Z,38.42
2019-03-29T04:15:49.519Z,44.98
2019-03-29T04:16:23.337Z,46.90
2019-03-29T04:16:57.182Z,43.87
2019-03-29T04:18:16.997Z,48.58
2019-03-29T04:18:50.818Z,60.70
2019-03-29T04:19:24.687Z,70.90
2019-03-29T04:19:58.441Z,79.85
2019-03-29T04:20:32.266Z,67.10
2019-03-29T04:21:06.106Z,91.35
2019-03-29T04:21:39.843Z,75.00
2019-03-29T04:22:14.687Z,76.07
2019-03-29T04:22:48.498Z,82.33
2019-03-29T04:23:22.279Z,80.75
2019-03-29T04:23:56.110Z,72.27
2019-03-29T04:24:29.863Z,74.65
2019-03-29T04:25:04.289Z,93.27
2019-03-29T04:25:38.123Z,79.45
2019-03-29T04:26:12.049Z,88.60
2019-03-29T04:26:45.835Z,83.80
2019-03-29T04:27:19.552Z,95.38
2019-03-29T04:27:53.470Z,94.30
2019-03-29T04:28:27.294Z,86.02
2019-03-29T04:29:04.960Z,91.70
2019-03-29T04:29:36.973Z,96.12
2019-03-29T04:30:12.582Z,98.90
2019-03-29T04:30:46.517Z,101.55
2019-03-29T04:31:20.423Z,110.88
2019-03-29T04:31:54.235Z,84.75
2019-03-29T04:33:11.013Z,105.92
2019-03-29T04:33:44.531Z,90.97
2019-03-29T04:34:18.395Z,108.80
2019-03-29T04:34:52.004Z,102.55
2019-03-29T04:35:25.758Z,121.00
2019-03-29T04:35:59.717Z,110.70
2019-03-29T04:36:33.568Z,139.52
2019-03-29T04:37:07.454Z,106.45
2019-03-29T04:37:41.382Z,89.30
2019-03-29T04:38:15.268Z,106.92
2019-03-29T04:38:49.070Z,96.95
2019-03-29T04:39:24.075Z,96.95
2019-03-29T04:40:06.789Z,123.53
2019-03-29T04:40:33.748Z,123.97
2019-03-29T04:41:07.624Z,89.92
2019-03-29T04:41:41.456Z,111.72
2019-03-29T04:42:15.706Z,131.78
2019-03-29T04:42:49.595Z,110.65
2019-03-29T04:43:23.550Z,102.00
2019-03-29T04:43:57.347Z,135.05
2019-03-29T04:44:31.198Z,94.45
2019-03-29T04:45:05.155Z,116.82
2019-03-29T04:45:38.900Z,131.90
2019-03-29T04:46:13.040Z,89.67
2019-03-29T04:46:46.760Z,99.30
2019-03-29T04:48:17.797Z,90.87
2019-03-29T04:48:51.537Z,115.62
2019-03-29T04:49:25.409Z,120.25
2019-03-29T04:49:59.723Z,99.03
2019-03-29T04:50:33.629Z,139.15
2019-03-29T04:51:07.620Z,132.22
2019-03-29T04:51:41.644Z,116.93
2019-03-29T04:52:15.646Z,122.53
2019-03-29T04:52:49.612Z,165.18
2019-03-29T04:53:23.525Z,108.10
2019-03-29T04:53:58.405Z,136.20
2019-03-29T04:54:32.376Z,129.85
2019-03-29T04:55:06.845Z,149.20
2019-03-29T04:55:41.822Z,132.35
2019-03-29T04:56:15.697Z,114.88
2019-03-29T04:56:49.586Z,131.75
2019-03-29T04:57:23.471Z,145.02
2019-03-29T04:57:57.411Z,155.30
2019-03-29T04:58:31.176Z,154.12
2019-03-29T04:59:05.116Z,108.10
2019-03-29T04:59:39.085Z,144.20
2019-03-29T05:00:13.184Z,147.98
2019-03-29T05:00:46.869Z,117.72
2019-03-29T05:01:21.010Z,100.65
2019-03-29T05:01:54.763Z,115.85
2019-03-29T05:03:16.063Z,105.92
2019-03-29T05:03:50.038Z,110.97
2019-03-29T05:04:23.976Z,95.22
2019-03-29T05:04:57.709Z,96.50
2019-03-29T05:05:31.641Z,121.72
2019-03-29T05:06:05.518Z,171.02
2019-03-29T05:06:39.465Z,118.65
2019-03-29T05:07:13.322Z,116.53
2019-03-29T05:07:47.055Z,113.52
2019-03-29T05:08:20.916Z,101.45
2019-03-29T05:08:54.644Z,148.95
2019-03-29T05:09:28.346Z,101.00
2019-03-29T05:10:02.305Z,122.50
2019-03-29T05:10:36.131Z,104.27
2019-03-29T05:11:10.016Z,148.38
2019-03-29T05:11:43.829Z,123.92
2019-03-29T05:12:17.771Z,136.95
2019-03-29T05:12:51.712Z,124.75
2019-03-29T05:13:25.493Z,108.17
2019-03-29T05:13:59.349Z,126.33
2019-03-29T05:14:33.326Z,132.45
2019-03-29T05:15:07.475Z,108.83
2019-03-29T05:15:41.295Z,143.10
2019-03-29T05:16:15.251Z,158.95
2019-03-29T05:16:49.191Z,123.75
2019-03-29T05:17:23.132Z,130.65
2019-03-29T05:18:09.871Z,125.42
2019-03-29T05:18:43.799Z,131.10
2019-03-29T05:19:17.653Z,131.65
2019-03-29T05:19:51.480Z,119.62
2019-03-29T05:20:25.453Z,122.22
2019-03-29T05:20:59.287Z,119.97
2019-03-29T05:21:33.053Z,114.37
2019-03-29T05:22:06.973Z,104.00
2019-03-29T05:22:40.917Z,112.83
2019-03-29T05:23:14.885Z,112.77
2019-03-29T05:23:48.506Z,135.97
2019-03-29T05:24:22.430Z,112.65
2019-03-29T05:24:56.135Z,117.87
2019-03-29T05:25:30.062Z,106.97
2019-03-29T05:26:04.017Z,110.10
2019-03-29T05:26:37.855Z,149.00
2019-03-29T05:27:11.815Z,146.07
2019-03-29T05:27:45.555Z,123.47
2019-03-29T05:28:19.291Z,145.05
2019-03-29T05:28:53.131Z,120.30
2019-03-29T05:29:26.941Z,132.40
2019-03-29T05:30:00.655Z,173.17
2019-03-29T05:30:34.379Z,126.53
2019-03-29T05:31:08.325Z,129.40
2019-03-29T05:31:42.156Z,127.07
2019-03-29T05:32:15.885Z,121.55
2019-03-29T05:33:02.541Z,126.85
2019-03-29T05:33:36.449Z,139.90
2019-03-29T05:34:10.221Z,134.10
2019-03-29T05:34:44.095Z,127.75
2019-03-29T05:35:17.821Z,154.95
2019-03-29T05:35:51.544Z,130.05
2019-03-29T05:36:25.260Z,132.55
2019-03-29T05:36:59.241Z,132.82
2019-03-29T05:37:32.939Z,131.78
2019-03-29T05:38:06.714Z,120.45
2019-03-29T05:38:40.540Z,127.75
2019-03-29T05:39:14.337Z,141.15
2019-03-29T05:39:48.027Z,135.63
2019-03-29T05:40:34.360Z,144.87
2019-03-29T05:40:57.563Z,121.72
2019-03-29T05:41:31.422Z,139.30
2019-03-29T05:42:05.257Z,141.95
2019-03-29T05:42:39.015Z,164.57
2019-03-29T05:43:12.987Z,145.97
2019-03-29T05:43:46.799Z,175.70
2019-03-29T05:44:20.622Z,186.00
2019-03-29T05:44:54.469Z,138.80
2019-03-29T05:45:28.291Z,173.78
2019-03-29T05:46:02.276Z,139.72
2019-03-29T05:46:36.106Z,131.90
2019-03-29T05:47:10.082Z,138.88
2019-03-29T05:47:43.803Z,149.23
2019-03-29T05:48:17.754Z,156.35
2019-03-29T05:48:51.569Z,121.77
2019-03-29T05:49:25.513Z,137.30
2019-03-29T05:49:59.361Z,156.70
2019-03-29T05:50:36.598Z,175.95
2019-03-29T05:51:09.068Z,143.80
2019-03-29T05:51:42.980Z,168.85
2019-03-29T05:52:16.891Z,146.90
2019-03-29T05:52:50.857Z,140.37
2019-03-29T05:53:24.711Z,159.65
2019-03-29T05:53:58.728Z,168.97
2019-03-29T05:54:32.548Z,144.85
2019-03-29T05:55:07.205Z,160.00
2019-03-29T05:55:41.147Z,206.85
2019-03-29T05:56:15.073Z,198.87
2019-03-29T05:56:48.917Z,141.85
2019-03-29T05:57:22.657Z,128.47
2019-03-29T05:57:56.503Z,162.37
2019-03-29T05:58:30.431Z,121.57
2019-03-29T05:59:06.902Z,152.68
2019-03-29T05:59:40.634Z,157.30
2019-03-29T06:00:18.286Z,159.05
2019-03-29T06:00:52.127Z,143.72
2019-03-29T06:01:26.037Z,158.65
2019-03-29T06:01:59.798Z,153.82
2019-03-29T06:02:33.531Z,148.70
2019-03-29T06:03:10.471Z,150.32
2019-03-29T06:03:44.395Z,172.78
2019-03-29T06:04:18.313Z,171.07
2019-03-29T06:04:52.207Z,140.92
2019-03-29T06:05:25.951Z,137.88
2019-03-29T06:05:59.679Z,122.58
2019-03-29T06:06:33.619Z,139.35
2019-03-29T06:07:07.509Z,160.80
2019-03-29T06:07:41.362Z,136.80
2019-03-29T06:08:15.180Z,120.28
2019-03-29T06:08:49.012Z,109.83
2019-03-29T06:09:22.867Z,113.62
2019-03-29T06:09:56.718Z,139.65
2019-03-29T06:10:30.678Z,120.33
2019-03-29T06:11:04.531Z,107.72
2019-03-29T06:11:38.427Z,116.22
2019-03-29T06:12:13.428Z,117.05
2019-03-29T06:12:47.152Z,111.57
2019-03-29T06:13:21.015Z,110.03
2019-03-29T06:13:54.950Z,112.40
2019-03-29T06:14:28.693Z,113.65
2019-03-29T06:15:02.943Z,132.30
2019-03-29T06:15:36.893Z,107.47
2019-03-29T06:16:10.689Z,86.80
2019-03-29T06:16:44.568Z,125.95
2019-03-29T06:17:18.369Z,134.50
2019-03-29T06:17:52.233Z,107.85
2019-03-29T06:18:26.138Z,136.20
2019-03-29T06:18:59.925Z,122.33
2019-03-29T06:19:33.523Z,93.55
2019-03-29T06:20:07.640Z,98.97
2019-03-29T06:20:41.427Z,123.42
2019-03-29T06:21:15.275Z,104.55
2019-03-29T06:21:50.841Z,119.02
2019-03-29T06:22:24.661Z,141.77
2019-03-29T06:22:58.485Z,112.77
2019-03-29T06:23:32.345Z,91.37
2019-03-29T06:24:06.060Z,101.80
2019-03-29T06:24:39.931Z,115.55
2019-03-29T06:25:13.862Z,115.92
2019-03-29T06:25:48.167Z,101.50
2019-03-29T06:26:21.989Z,90.30
2019-03-29T06:26:55.984Z,92.15
2019-03-29T06:27:29.699Z,102.78
2019-03-29T06:28:03.695Z,92.00
2019-03-29T06:28:37.531Z,86.57
2019-03-29T06:29:11.538Z,98.80
2019-03-29T06:29:45.345Z,84.17
2019-03-29T06:30:29.439Z,84.42
2019-03-29T06:31:03.368Z,90.32
2019-03-29T06:31:37.398Z,83.95
2019-03-29T06:32:11.219Z,107.07
2019-03-29T06:32:45.083Z,82.22
2019-03-29T06:33:20.273Z,79.40
2019-03-29T06:33:54.118Z,82.33
2019-03-29T06:34:27.939Z,80.92
2019-03-29T06:35:01.896Z,82.17
2019-03-29T06:35:38.867Z,77.30
2019-03-29T06:36:14.427Z,87.27
2019-03-29T06:36:49.611Z,93.33
2019-03-29T06:37:24.473Z,92.67
2019-03-29T06:37:58.807Z,89.80
2019-03-29T06:38:35.123Z,114.35
2019-03-29T06:39:09.904Z,88.90
2019-03-29T06:39:44.401Z,106.15
2019-03-29T06:40:25.139Z,90.53
2019-03-29T06:41:03.205Z,96.25
2019-03-29T06:41:34.820Z,100.95
2019-03-29T06:42:08.691Z,109.52
2019-03-29T06:42:42.581Z,84.47
2019-03-29T06:43:16.818Z,83.58
2019-03-29T06:43:50.629Z,90.95
2019-03-29T06:44:24.574Z,80.22
2019-03-29T06:44:58.369Z,85.25
2019-03-29T06:45:32.344Z,73.90
2019-03-29T06:46:06.344Z,81.53
2019-03-29T06:46:40.677Z,77.37
2019-03-29T06:47:14.472Z,71.30
2019-03-29T06:47:48.461Z,76.37
2019-03-29T06:48:22.341Z,99.42
2019-03-29T06:48:56.231Z,106.40
2019-03-29T06:49:31.661Z,90.45
2019-03-29T06:50:05.646Z,84.25
2019-03-29T06:50:39.661Z,89.92
2019-03-29T06:51:13.543Z,76.55
2019-03-29T06:51:47.395Z,79.25
2019-03-29T06:52:21.322Z,98.37
2019-03-29T06:52:55.341Z,93.55
2019-03-29T06:53:29.343Z,99.55
2019-03-29T06:54:03.368Z,78.72
2019-03-29T06:54:37.213Z,79.35
2019-03-29T06:55:12.179Z,76.02
2019-03-29T06:55:46.041Z,84.22
2019-03-29T06:56:20.310Z,73.00
2019-03-29T06:56:54.297Z,71.65
2019-03-29T06:57:28.296Z,72.42
2019-03-29T06:58:02.363Z,71.17
2019-03-29T06:58:36.347Z,70.20
2019-03-29T06:59:10.255Z,73.62
2019-03-29T06:59:44.015Z,64.87
2019-03-29T07:00:18.033Z,69.27
2019-03-29T07:00:51.925Z,70.47
2019-03-29T07:01:25.706Z,87.05
2019-03-29T07:01:59.635Z,81.28
2019-03-29T07:02:33.435Z,82.75
2019-03-29T07:03:07.425Z,94.03
2019-03-29T07:03:41.335Z,93.30
2019-03-29T07:04:15.185Z,89.03
2019-03-29T07:04:49.004Z,87.85
2019-03-29T07:05:22.979Z,88.95
2019-03-29T07:05:56.811Z,84.80
2019-03-29T07:06:30.790Z,84.45
2019-03-29T07:07:04.709Z,81.57
2019-03-29T07:07:38.556Z,88.70
2019-03-29T07:08:12.461Z,76.05
2019-03-29T07:08:46.283Z,78.28
2019-03-29T07:09:20.234Z,79.90
2019-03-29T07:09:54.129Z,85.00
2019-03-29T07:10:27.969Z,84.28
2019-03-29T07:11:16.200Z,78.72
2019-03-29T07:11:39.681Z,80.83
2019-03-29T07:12:13.478Z,87.12
2019-03-29T07:12:47.430Z,74.45
2019-03-29T07:13:21.187Z,91.20
2019-03-29T07:13:57.619Z,83.80
2019-03-29T07:14:30.535Z,82.53
2019-03-29T07:15:05.621Z,90.40
2019-03-29T07:15:39.574Z,83.10
2019-03-29T07:16:13.391Z,77.00
2019-03-29T07:16:47.403Z,80.05
2019-03-29T07:17:21.267Z,75.97
2019-03-29T07:17:55.262Z,72.72
2019-03-29T07:18:38.393Z,74.82
2019-03-29T07:19:12.305Z,68.37
2019-03-29T07:19:46.251Z,72.37
2019-03-29T07:20:20.196Z,69.20
2019-03-29T07:20:54.003Z,68.50
2019-03-29T07:21:27.859Z,70.83
2019-03-29T07:22:02.717Z,68.57
2019-03-29T07:22:36.579Z,68.00
2019-03-29T07:23:10.415Z,75.30
2019-03-29T07:23:44.265Z,70.60
2019-03-29T07:24:18.081Z,74.67
2019-03-29T07:24:51.821Z,78.87
2019-03-29T07:25:25.953Z,76.77
2019-03-29T07:26:00.093Z,81.42
2019-03-29T07:26:33.907Z,86.10
2019-03-29T07:27:08.550Z,80.05
2019-03-29T07:27:45.816Z,89.20
2019-03-29T07:28:18.031Z,105.17
2019-03-29T07:28:51.858Z,120.50
2019-03-29T07:29:26.620Z,132.47
2019-03-29T07:30:00.500Z,140.35
2019-03-29T07:30:34.403Z,133.70
2019-03-29T07:31:08.329Z,131.50
2019-03-29T07:31:42.251Z,125.67
2019-03-29T07:32:16.166Z,114.05
2019-03-29T07:32:51.123Z,106.97
2019-03-29T07:33:24.925Z,91.22
2019-03-29T07:33:58.761Z,83.80
2019-03-29T07:34:32.565Z,77.82
2019-03-29T07:35:06.591Z,83.62
2019-03-29T07:35:40.275Z,93.03
2019-03-29T07:36:15.721Z,82.92
2019-03-29T07:36:49.531Z,74.10
2019-03-29T07:37:23.369Z,68.57
2019-03-29T07:37:57.285Z,78.72
2019-03-29T07:38:31.139Z,75.52
2019-03-29T07:39:06.053Z,66.65
2019-03-29T07:39:41.555Z,63.23
2019-03-29T07:40:15.383Z,64.95
2019-03-29T07:40:49.251Z,67.55
2019-03-29T07:41:31.875Z,64.72
2019-03-29T07:41:59.080Z,68.70
2019-03-29T07:42:33.001Z,71.35
2019-03-29T07:43:06.907Z,81.47
2019-03-29T07:43:40.723Z,77.72
2019-03-29T07:44:14.439Z,75.75
2019-03-29T07:44:48.315Z,81.30
2019-03-29T07:45:21.947Z,72.85
2019-03-29T07:45:55.951Z,78.35
2019-03-29T07:46:29.754Z,88.30
2019-03-29T07:47:03.589Z,82.02
2019-03-29T07:47:37.409Z,73.40
2019-03-29T07:48:11.317Z,87.25
2019-03-29T07:49:00.637Z,85.05
2019-03-29T07:49:34.421Z,74.35
2019-03-29T07:50:08.477Z,72.47
2019-03-29T07:50:42.241Z,71.67
2019-03-29T07:51:16.138Z,75.47
2019-03-29T07:51:50.091Z,70.22
2019-03-29T07:52:23.915Z,68.33
2019-03-29T07:52:57.781Z,64.97
2019-03-29T07:53:32.719Z,71.22
2019-03-29T07:54:06.659Z,74.60
2019-03-29T07:54:40.596Z,78.35
2019-03-29T07:55:14.515Z,74.50
2019-03-29T07:55:48.251Z,76.62
2019-03-29T07:56:22.179Z,74.97
2019-03-29T07:56:56.005Z,70.75
2019-03-29T07:57:29.980Z,68.00